Spirit Lake, IA

6:53 AM CDT on August 27, 2016 (GMT -0500)
APRSWXNET | | Change Station

Elev 1469 ft 43.42 °N, 95.10 °W | Updated 27 minutes ago

Mist
Mist
61 °F
Feels Like 61 °F
N
2
Wind Variable Wind from ESE
Gusts 3.0 mph

Today
High -- | Low -- °F
--% Chance of Precip.
Yesterday
High -- | Low -- °F
Precip. -- in
Pressure 30.03 in
Visibility 3.0 miles
Clouds
Dew Point 60 °F
Humidity 97%
Rainfall in
Snow Depth Not available.
6:39 AM 8:03 PM
Waning Crescent, 25% visible
METAR KMJQ 271132Z AUTO 12005KT 3SM BR 16/15 A3003 RMK AO2
Pressure 30.03 in
Visibility 3.0 miles
Clouds
Dew Point 60 °F
Humidity 97%
Rainfall in
Snow Depth Not available.
6:39 AM 8:03 PM
Waning Crescent, 25% visible
METAR KMJQ 271132Z AUTO 12005KT 3SM BR 16/15 A3003 RMK AO2

10-Day Weather Forecast

Almanac

Astronomy

Aug. 27, 2016 Rise Set
Actual Time
Civil Twilight
Nautical Twilight
Astronomical Twilight
Moon
Length of Visible Light
Length of Day
Tomorrow will be .
, % of the Moon is Illuminated

Today's Extremes

State Highs State Lows

Community

WunderPhotos

Upload Photos

1,935,325 photos uploaded!

WunderBlog® & News

Nearby

Air Quality

  Air Quality AQ Index Pollutant
Not available.

Snow Depth

Station Depth Elevation

Earthquake Activity

City Distance Mag. Time & Date
Minimum magnitude displayed is 2.5.

Coastal Water Temperatures

Place Temperature

Stations

Nearby Weather Stations

Station Location Temp. Windchill Dew Point Humidity Wind Precip. Elev Updated Type
                   

Watches & Warnings

There are currently no watches in effect.